Time;durP1;ratioP1;P1;durP2;ratioP2;P2;SDS_P1;SDS_P2;PMS_P1;PMS_P2;Temp;Humidity;BMP_temperature;BMP_pressure;BME280_temperature;BME280_humidity;BME280_pressure;Samples;Min_cycle;Max_cycle;Signal;HPM_P1;HPM_P2
2022/10/17 00:01:13;;;;;;;16.45;5.07;;;12.70;99.90;;;;;;4929617;29;20113;-79
2022/10/17 00:03:39;;;;;;;11.98;4.85;;;12.70;99.90;;;;;;4929178;29;20043;-79
2022/10/17 00:06:08;;;;;;;16.10;5.15;;;12.70;99.90;;;;;;4929446;28;20143;-79
2022/10/17 00:08:35;;;;;;;11.52;4.95;;;12.70;99.90;;;;;;4923924;28;20134;-79
2022/10/17 00:11:05;;;;;;;14.43;4.80;;;12.70;99.90;;;;;;4933281;28;20051;-79
2022/10/17 00:13:31;;;;;;;13.35;5.20;;;12.70;99.90;;;;;;4917545;28;20039;-79
2022/10/17 00:15:57;;;;;;;20.83;5.82;;;12.70;99.90;;;;;;4915569;29;20069;-79
2022/10/17 00:18:23;;;;;;;10.25;5.20;;;12.70;99.90;;;;;;4909479;29;20507;-79
2022/10/17 00:20:48;;;;;;;15.48;5.78;;;12.70;99.90;;;;;;4915333;29;20035;-79
2022/10/17 00:23:14;;;;;;;18.05;5.47;;;12.70;99.90;;;;;;4927493;29;20039;-79
2022/10/17 00:25:40;;;;;;;15.68;6.22;;;12.80;99.90;;;;;;4928197;28;20039;-79
2022/10/17 00:28:09;;;;;;;12.45;5.75;;;12.80;99.90;;;;;;4917022;29;20050;-79
2022/10/17 00:30:35;;;;;;;12.30;6.43;;;12.80;99.90;;;;;;4931630;29;20041;-79
2022/10/17 00:33:00;;;;;;;16.25;6.93;;;12.80;99.90;;;;;;4931234;28;20066;-79
2022/10/17 00:35:26;;;;;;;13.40;6.40;;;12.80;99.90;;;;;;4932123;28;20043;-79
2022/10/17 00:37:52;;;;;;;13.80;6.53;;;12.90;99.90;;;;;;4918021;28;20134;-79
2022/10/17 00:40:17;;;;;;;13.00;6.25;;;12.90;99.90;;;;;;4926256;28;20070;-79
2022/10/17 00:42:43;;;;;;;13.75;6.45;;;12.90;99.90;;;;;;4928811;29;20138;-79
2022/10/17 00:45:16;;;;;;;12.43;6.07;;;12.90;99.90;;;;;;4929136;28;20035;-79
2022/10/17 00:47:46;;;;;;;13.48;5.75;;;13.00;99.90;;;;;;4930795;29;20047;-79
2022/10/17 00:50:12;;;;;;;14.00;6.82;;;13.00;99.90;;;;;;4915537;29;20481;-79
2022/10/17 00:52:39;;;;;;;10.02;6.32;;;13.00;99.90;;;;;;4928364;29;20043;-79
2022/10/17 00:55:16;;;;;;;14.75;6.20;;;13.10;99.90;;;;;;4932625;29;20039;-79
2022/10/17 00:57:44;;;;;;;12.85;6.18;;;13.10;99.90;;;;;;4943374;28;20169;-79
2022/10/17 01:00:10;;;;;;;13.43;6.22;;;13.10;99.90;;;;;;4931093;29;20054;-79
2022/10/17 01:02:36;;;;;;;10.77;6.07;;;13.20;99.90;;;;;;4929119;29;20044;-79
2022/10/17 01:05:02;;;;;;;13.35;6.40;;;13.20;99.90;;;;;;4914897;28;20039;-79
2022/10/17 01:07:29;;;;;;;10.38;5.78;;;13.20;99.90;;;;;;4911542;28;20066;-79
2022/10/17 01:09:55;;;;;;;14.90;6.40;;;13.20;99.90;;;;;;4931343;28;20039;-79
2022/10/17 01:12:48;;;;;;;11.75;6.30;;;13.20;99.90;;;;;;4919468;29;20610;-79
2022/10/17 01:15:42;;;;;;;10.75;6.25;;;13.20;99.90;;;;;;4946423;28;20043;-79
2022/10/17 01:18:32;;;;;;;10.55;6.25;;;13.20;99.90;;;;;;4919647;28;20047;-79
2022/10/17 01:21:05;;;;;;;14.65;6.88;;;13.20;99.90;;;;;;4928502;29;20062;-79
2022/10/17 01:23:52;;;;;;;10.30;6.38;;;13.20;99.90;;;;;;4929338;29;20086;-79
2022/10/17 01:26:40;;;;;;;10.93;6.00;;;13.20;99.90;;;;;;4914757;28;20046;-79
2022/10/17 01:29:24;;;;;;;11.77;5.78;;;13.20;99.90;;;;;;4921701;28;20059;-79
2022/10/17 01:32:01;;;;;;;11.27;6.90;;;13.20;99.90;;;;;;4918485;29;20071;-79
2022/10/17 01:34:31;;;;;;;13.85;6.57;;;13.10;99.90;;;;;;4928673;29;20050;-79
2022/10/17 01:37:05;;;;;;;12.95;6.28;;;13.10;99.90;;;;;;4930137;29;20117;-79
2022/10/17 01:39:43;;;;;;;13.48;6.47;;;13.10;99.90;;;;;;4917762;28;20490;-79
2022/10/17 01:42:23;;;;;;;9.18;6.13;;;13.10;99.90;;;;;;4917560;29;20051;-80
2022/10/17 01:44:52;;;;;;;12.40;6.20;;;13.00;99.90;;;;;;4934363;28;20973;-81
2022/10/17 01:47:23;;;;;;;8.82;7.13;;;13.00;99.90;;;;;;4933366;28;20043;-79
2022/10/17 01:49:52;;;;;;;12.45;7.22;;;13.00;99.90;;;;;;4916495;29;20474;-80
2022/10/17 01:52:23;;;;;;;11.73;7.60;;;13.00;99.90;;;;;;4933473;29;20055;-80
2022/10/17 01:54:53;;;;;;;12.98;7.38;;;12.90;99.90;;;;;;4915258;29;20039;-80
2022/10/17 01:57:31;;;;;;;12.45;7.75;;;12.90;99.90;;;;;;4930539;28;20070;-80
2022/10/17 01:59:57;;;;;;;12.43;7.63;;;13.00;99.90;;;;;;4928293;29;20395;-79
2022/10/17 02:02:25;;;;;;;14.48;7.75;;;12.90;99.90;;;;;;4913290;28;20046;-79
2022/10/17 02:04:51;;;;;;;13.57;8.30;;;12.90;99.90;;;;;;4914025;29;20039;-79
2022/10/17 02:07:17;;;;;;;14.25;8.32;;;12.90;99.90;;;;;;4916828;29;20043;-79
2022/10/17 02:09:43;;;;;;;10.23;8.02;;;12.90;99.90;;;;;;4929269;29;20118;-79
2022/10/17 02:12:26;;;;;;;16.63;8.52;;;12.80;99.90;;;;;;4929341;29;20043;-79
2022/10/17 02:15:29;;;;;;;11.02;8.40;;;12.80;99.90;;;;;;4916498;29;20134;-79
2022/10/17 02:18:09;;;;;;;12.30;8.50;;;12.80;99.90;;;;;;4931797;28;22279;-79
2022/10/17 02:20:41;;;;;;;14.95;8.52;;;12.80;99.90;;;;;;4929021;29;20055;-79
2022/10/17 02:23:23;;;;;;;12.73;8.05;;;12.80;99.90;;;;;;4929134;29;20098;-80
2022/10/17 02:26:04;;;;;;;12.70;8.80;;;12.80;99.90;;;;;;4931695;29;20390;-79
2022/10/17 02:28:52;;;;;;;10.80;9.67;;;12.70;99.90;;;;;;4911504;28;20300;-79
2022/10/17 02:31:44;;;;;;;13.70;9.77;;;12.70;99.90;;;;;;4930264;28;20051;-79
2022/10/17 02:34:21;;;;;;;12.52;8.25;;;12.80;99.90;;;;;;4923275;29;20053;-79
2022/10/17 02:36:52;;;;;;;16.83;9.10;;;12.70;99.90;;;;;;4924231;28;20057;-79
2022/10/17 02:39:20;;;;;;;16.55;10.85;;;12.70;99.90;;;;;;4915270;29;20048;-79
2022/10/17 02:41:49;;;;;;;12.75;10.00;;;12.70;99.90;;;;;;4927673;28;20069;-79
2022/10/17 02:44:15;;;;;;;20.85;10.77;;;12.70;99.90;;;;;;4915406;28;20118;-79
2022/10/17 02:46:43;;;;;;;15.50;11.13;;;12.70;99.90;;;;;;4928242;28;20040;-79
2022/10/17 02:49:21;;;;;;;13.50;10.82;;;12.70;99.90;;;;;;4916480;28;20067;-79
2022/10/17 02:52:05;;;;;;;12.95;10.90;;;12.70;99.90;;;;;;4928030;28;20087;-79
2022/10/17 02:54:44;;;;;;;16.13;10.48;;;12.70;99.90;;;;;;4928136;29;20063;-79
2022/10/17 02:57:36;;;;;;;12.13;10.98;;;12.70;99.90;;;;;;4916508;29;20446;-79
2022/10/17 03:00:07;;;;;;;18.53;11.80;;;12.70;99.90;;;;;;4932409;29;20102;-79
2022/10/17 03:02:45;;;;;;;13.88;11.43;;;12.80;99.90;;;;;;4917932;29;20299;-79
2022/10/17 03:05:18;;;;;;;19.67;13.00;;;12.70;99.90;;;;;;4918121;29;20143;-79
2022/10/17 03:07:43;;;;;;;14.38;12.15;;;12.70;99.90;;;;;;4928182;29;20151;-79
2022/10/17 03:10:09;;;;;;;20.40;12.80;;;12.80;99.90;;;;;;4929850;29;22078;-80
2022/10/17 03:12:35;;;;;;;18.65;13.20;;;12.70;99.90;;;;;;4931090;28;20051;-80
2022/10/17 03:15:01;;;;;;;18.05;13.68;;;12.70;99.90;;;;;;4931755;28;20138;-80
2022/10/17 03:17:26;;;;;;;20.77;13.48;;;12.70;99.90;;;;;;4929622;29;20134;-80
2022/10/17 03:19:52;;;;;;;14.98;13.45;;;12.80;99.90;;;;;;4915025;28;20107;-80
2022/10/17 03:22:17;;;;;;;18.20;13.52;;;12.80;99.90;;;;;;4931266;29;20047;-79
2022/10/17 03:24:43;;;;;;;17.92;13.07;;;12.80;99.90;;;;;;4929903;29;20071;-79
2022/10/17 03:27:09;;;;;;;17.80;13.35;;;12.80;99.90;;;;;;4935237;29;20130;-79
2022/10/17 03:29:34;;;;;;;16.50;14.30;;;12.80;99.90;;;;;;4916871;29;20047;-79
2022/10/17 03:32:00;;;;;;;19.25;14.88;;;12.80;99.90;;;;;;4930353;29;20079;-79
2022/10/17 03:34:25;;;;;;;18.80;15.73;;;12.80;99.90;;;;;;4929813;29;20142;-79
2022/10/17 03:36:51;;;;;;;22.60;15.07;;;12.80;99.90;;;;;;4932494;28;20047;-79
2022/10/17 03:39:17;;;;;;;19.48;15.30;;;12.80;99.90;;;;;;4916565;29;20102;-79
2022/10/17 03:41:42;;;;;;;20.48;15.20;;;12.80;99.90;;;;;;4933045;29;20066;-79
2022/10/17 03:44:08;;;;;;;18.77;16.80;;;12.80;99.90;;;;;;4918717;28;20035;-79
2022/10/17 03:46:33;;;;;;;24.40;17.05;;;12.80;99.90;;;;;;4927744;28;20142;-79
2022/10/17 03:48:59;;;;;;;22.08;16.88;;;12.80;99.90;;;;;;4931630;28;20160;-79
2022/10/17 03:51:25;;;;;;;16.88;15.18;;;12.80;99.90;;;;;;4930276;29;20043;-79
2022/10/17 03:53:50;;;;;;;19.60;15.00;;;12.80;99.90;;;;;;4926575;28;20047;-79
2022/10/17 03:56:19;;;;;;;18.17;15.95;;;12.80;99.90;;;;;;4929051;29;20052;-79
2022/10/17 03:58:45;;;;;;;20.02;15.77;;;12.80;99.90;;;;;;4930774;28;20039;-79
2022/10/17 04:01:13;;;;;;;19.17;16.50;;;12.80;99.90;;;;;;4918555;28;20479;-79
2022/10/17 04:03:39;;;;;;;23.38;17.33;;;12.80;99.90;;;;;;4929430;28;20040;-79
2022/10/17 04:06:06;;;;;;;20.60;17.92;;;12.80;99.90;;;;;;4918766;29;20050;-79
2022/10/17 04:08:31;;;;;;;21.23;17.83;;;12.80;99.90;;;;;;4916978;29;20042;-79
2022/10/17 04:10:59;;;;;;;21.73;17.02;;;12.90;99.90;;;;;;4914537;28;20122;-79
2022/10/17 04:13:25;;;;;;;21.75;18.38;;;12.80;99.90;;;;;;4930384;29;20039;-79
2022/10/17 04:15:58;;;;;;;24.42;18.27;;;12.80;99.90;;;;;;4910270;28;20058;-79
2022/10/17 04:18:24;;;;;;;23.10;17.92;;;12.80;99.90;;;;;;4917920;28;20449;-79
2022/10/17 04:20:50;;;;;;;20.48;17.63;;;12.80;99.90;;;;;;4914452;28;20047;-79
2022/10/17 04:23:16;;;;;;;25.88;18.67;;;12.80;99.90;;;;;;4928574;29;20047;-79
2022/10/17 04:25:42;;;;;;;26.90;19.30;;;12.80;99.90;;;;;;4926271;29;20031;-79
2022/10/17 04:28:07;;;;;;;25.48;19.27;;;12.80;99.90;;;;;;4915378;28;20055;-79
2022/10/17 04:30:33;;;;;;;26.42;20.88;;;12.90;99.90;;;;;;4934362;28;20391;-79
2022/10/17 04:32:59;;;;;;;27.40;20.92;;;12.80;99.90;;;;;;4930186;29;20039;-79
2022/10/17 04:35:24;;;;;;;26.45;20.52;;;12.90;99.90;;;;;;4927338;28;20051;-79
2022/10/17 04:37:50;;;;;;;26.65;20.50;;;12.90;99.90;;;;;;4911159;28;20048;-79
2022/10/17 04:40:16;;;;;;;28.60;21.77;;;12.90;99.90;;;;;;4938887;29;20047;-79
2022/10/17 04:42:42;;;;;;;32.30;23.27;;;13.00;99.90;;;;;;4917895;28;20040;-79
2022/10/17 04:45:08;;;;;;;33.83;23.95;;;12.90;99.90;;;;;;4930530;29;20414;-79
2022/10/17 04:47:33;;;;;;;30.30;23.25;;;13.00;99.90;;;;;;4928750;29;20040;-79
2022/10/17 04:49:59;;;;;;;32.38;23.88;;;13.10;99.90;;;;;;4930309;29;20406;-79
2022/10/17 04:52:25;;;;;;;32.60;24.00;;;13.20;99.90;;;;;;4914562;29;20078;-79
2022/10/17 04:54:51;;;;;;;34.95;22.83;;;13.20;99.90;;;;;;4927142;28;20061;-79
2022/10/17 04:57:17;;;;;;;30.50;22.80;;;13.30;99.90;;;;;;4916080;28;20082;-79
2022/10/17 04:59:43;;;;;;;32.85;23.73;;;13.30;99.90;;;;;;4927792;28;20050;-79
2022/10/17 05:02:09;;;;;;;28.02;21.92;;;13.30;99.90;;;;;;4914674;29;20047;-79
2022/10/17 05:04:34;;;;;;;31.88;22.63;;;13.40;99.90;;;;;;4930651;28;20478;-79
2022/10/17 05:07:00;;;;;;;30.48;22.48;;;13.40;99.90;;;;;;4929745;29;20051;-79
2022/10/17 05:09:26;;;;;;;30.90;22.70;;;13.30;99.90;;;;;;4911544;29;20090;-79
2022/10/17 05:11:52;;;;;;;31.00;22.35;;;13.40;99.90;;;;;;4915494;28;20534;-79
2022/10/17 05:14:17;;;;;;;30.30;22.63;;;13.40;99.90;;;;;;4928116;29;20126;-79
2022/10/17 05:16:43;;;;;;;34.58;23.70;;;13.50;99.90;;;;;;4929060;29;20047;-79
2022/10/17 05:19:10;;;;;;;32.08;22.88;;;13.50;99.90;;;;;;4917819;28;20142;-79
2022/10/17 05:21:36;;;;;;;34.10;22.75;;;13.60;99.90;;;;;;4930087;28;20043;-79
2022/10/17 05:24:10;;;;;;;30.98;22.65;;;13.60;99.90;;;;;;4924167;29;20070;-80
2022/10/17 05:26:35;;;;;;;35.45;22.13;;;13.60;99.90;;;;;;4926481;29;20043;-79
2022/10/17 05:29:01;;;;;;;33.92;22.70;;;13.70;99.90;;;;;;4926907;29;20039;-79
2022/10/17 05:31:28;;;;;;;28.40;21.63;;;13.60;99.90;;;;;;4927116;28;20062;-79
2022/10/17 05:33:55;;;;;;;30.33;22.88;;;13.70;99.90;;;;;;4932337;28;20430;-80
2022/10/17 05:36:21;;;;;;;27.73;22.38;;;13.70;99.90;;;;;;4929330;29;20510;-79
2022/10/17 05:38:50;;;;;;;29.85;23.65;;;13.80;99.90;;;;;;4932232;29;20051;-79
2022/10/17 05:41:17;;;;;;;30.80;22.45;;;13.80;99.90;;;;;;4948181;28;20055;-79
2022/10/17 05:43:42;;;;;;;36.70;23.58;;;13.90;99.90;;;;;;4917469;28;20040;-79
2022/10/17 05:46:08;;;;;;;31.80;22.60;;;13.90;99.90;;;;;;4912852;28;20578;-79
2022/10/17 05:48:34;;;;;;;28.63;22.73;;;13.90;99.90;;;;;;4928244;29;20050;-79
2022/10/17 05:51:01;;;;;;;30.70;22.25;;;13.90;99.90;;;;;;4912600;28;20039;-79
2022/10/17 05:53:31;;;;;;;31.40;22.98;;;13.90;99.90;;;;;;4925684;29;20051;-79
2022/10/17 05:56:02;;;;;;;33.38;22.85;;;14.00;99.90;;;;;;4915884;28;20059;-79
2022/10/17 05:58:28;;;;;;;30.58;22.30;;;14.00;99.90;;;;;;4911857;29;20044;-79
2022/10/17 06:00:59;;;;;;;33.30;23.52;;;14.00;99.90;;;;;;4931193;28;20047;-79
2022/10/17 06:03:25;;;;;;;32.80;23.02;;;14.10;99.90;;;;;;4914231;28;20047;-79
2022/10/17 06:05:51;;;;;;;30.58;22.67;;;14.20;99.90;;;;;;4926123;28;20047;-79
2022/10/17 06:08:17;;;;;;;36.50;23.23;;;14.20;99.90;;;;;;4914561;29;20039;-79
2022/10/17 06:10:46;;;;;;;32.72;23.02;;;14.20;99.90;;;;;;4913530;28;20040;-79
2022/10/17 06:13:12;;;;;;;32.53;22.85;;;14.30;99.90;;;;;;4917415;29;20043;-79
2022/10/17 06:15:38;;;;;;;30.30;23.05;;;14.40;99.90;;;;;;4930330;29;20418;-79
2022/10/17 06:18:03;;;;;;;27.90;20.65;;;14.40;99.90;;;;;;4932428;28;20572;-79
2022/10/17 06:20:29;;;;;;;32.58;21.23;;;14.30;99.90;;;;;;4927604;29;20148;-79
2022/10/17 06:22:54;;;;;;;33.42;21.55;;;14.50;99.90;;;;;;4914686;28;20054;-79
2022/10/17 06:25:20;;;;;;;33.78;20.88;;;14.50;99.90;;;;;;4913775;29;20043;-79
2022/10/17 06:27:46;;;;;;;26.63;20.05;;;14.50;99.90;;;;;;4928272;29;20048;-79
2022/10/17 06:30:11;;;;;;;30.77;19.58;;;14.60;99.90;;;;;;4926171;29;20140;-79
2022/10/17 06:32:37;;;;;;;25.52;19.92;;;14.70;99.90;;;;;;4910152;29;20039;-79
2022/10/17 06:35:02;;;;;;;26.83;19.15;;;14.70;99.90;;;;;;4928218;29;20042;-79
2022/10/17 06:37:32;;;;;;;28.83;19.83;;;14.70;99.90;;;;;;4919065;28;20047;-79
2022/10/17 06:39:58;;;;;;;28.77;19.42;;;14.60;99.90;;;;;;4915150;29;22655;-79
2022/10/17 06:42:24;;;;;;;25.90;17.98;;;14.70;99.90;;;;;;4933911;29;20036;-79
2022/10/17 06:44:50;;;;;;;25.75;19.27;;;14.70;99.90;;;;;;4933371;29;20082;-79
2022/10/17 06:47:15;;;;;;;22.17;18.02;;;14.80;99.90;;;;;;4931477;29;20043;-79
2022/10/17 06:49:41;;;;;;;24.67;18.50;;;14.80;99.90;;;;;;4917610;29;20047;-80
2022/10/17 06:52:07;;;;;;;24.38;19.10;;;15.00;99.90;;;;;;4929162;29;20055;-79
2022/10/17 06:54:32;;;;;;;23.67;17.70;;;14.90;99.90;;;;;;4914776;29;20043;-79
2022/10/17 06:56:58;;;;;;;26.10;17.88;;;14.90;99.90;;;;;;4917304;28;20055;-79
2022/10/17 06:59:23;;;;;;;24.33;17.52;;;14.90;99.90;;;;;;4932846;28;20489;-79
2022/10/17 07:01:49;;;;;;;25.40;17.20;;;14.90;99.90;;;;;;4934769;28;20067;-79
2022/10/17 07:04:14;;;;;;;26.75;16.80;;;15.00;99.90;;;;;;4917576;29;20051;-80
2022/10/17 07:06:40;;;;;;;24.05;15.55;;;15.00;99.90;;;;;;4920758;28;20573;-79
2022/10/17 07:09:06;;;;;;;20.92;16.80;;;15.00;99.90;;;;;;4918339;29;20048;-79
2022/10/17 07:11:36;;;;;;;25.10;16.08;;;15.10;99.90;;;;;;4932106;29;20426;-79
2022/10/17 07:14:02;;;;;;;22.17;17.10;;;15.10;99.90;;;;;;4919731;29;20067;-79
2022/10/17 07:16:28;;;;;;;23.17;16.58;;;15.10;99.90;;;;;;4949215;28;20067;-79
2022/10/17 07:18:53;;;;;;;19.70;15.82;;;15.10;99.90;;;;;;4933123;28;20099;-79
2022/10/17 07:21:41;;;;;;;23.10;15.85;;;15.20;99.90;;;;;;4931974;29;20055;-79
2022/10/17 07:24:27;;;;;;;19.48;15.85;;;15.30;99.90;;;;;;4933604;29;20039;-79
2022/10/17 07:27:19;;;;;;;;;;;;;;;;;;;;;
2022/10/17 07:29:59;;;;;;;20.92;16.05;;;15.40;99.90;;;;;;4919063;28;20754;-80
2022/10/17 07:32:41;;;;;;;;;;;;;;;;;;;;;
2022/10/17 07:35:41;;;;;;;;;;;;;;;;;;;;;
2022/10/17 07:38:56;;;;;;;;;;;;;;;;;;;;;
2022/10/17 07:45:30;;;;;;;;;;;;;;;;;;;;;
2022/10/17 07:48:21;;;;;;;19.38;13.68;;;15.70;99.90;;;;;;4928017;29;20042;-79
2022/10/17 07:51:36;;;;;;;19.48;13.52;;;15.80;99.90;;;;;;4935529;28;20044;-79
2022/10/17 07:54:44;;;;;;;16.58;13.20;;;15.80;99.90;;;;;;4933587;29;20521;-79
2022/10/17 07:57:11;;;;;;;15.27;12.00;;;15.90;99.90;;;;;;4927202;29;20035;-78
2022/10/17 07:59:42;;;;;;;16.23;12.10;;;15.90;99.90;;;;;;4917861;28;20052;-78
2022/10/17 08:02:19;;;;;;;19.60;12.07;;;15.90;99.90;;;;;;4942139;28;20075;-74
2022/10/17 08:04:45;;;;;;;15.32;11.55;;;16.00;99.90;;;;;;4916165;29;20114;-80
2022/10/17 08:07:15;;;;;;;17.77;12.13;;;16.00;99.90;;;;;;4932200;29;20192;-79
2022/10/17 08:09:41;;;;;;;20.77;12.13;;;16.00;99.90;;;;;;4933082;29;20514;-79
2022/10/17 08:12:07;;;;;;;13.93;11.35;;;16.10;99.90;;;;;;4931891;29;20050;-78
2022/10/17 08:14:38;;;;;;;15.85;11.02;;;16.10;99.90;;;;;;4927936;29;20039;-79
2022/10/17 08:17:09;;;;;;;15.43;11.50;;;16.20;99.90;;;;;;4935477;28;20039;-80
2022/10/17 08:19:56;;;;;;;19.27;10.52;;;16.20;99.90;;;;;;4935347;28;20082;-79
2022/10/17 08:22:50;;;;;;;13.05;11.02;;;16.30;99.90;;;;;;4898997;29;20039;-80
2022/10/17 08:25:20;;;;;;;15.18;10.43;;;16.30;99.90;;;;;;4933646;29;20043;-79
2022/10/17 08:27:49;;;;;;;16.70;10.48;;;16.30;99.90;;;;;;4927029;28;20501;-80
2022/10/17 08:30:17;;;;;;;14.27;9.80;;;16.30;99.90;;;;;;4934852;29;20047;-79
2022/10/17 08:32:55;;;;;;;14.43;10.00;;;16.30;99.90;;;;;;4916424;28;20487;-79
2022/10/17 08:35:25;;;;;;;12.48;9.98;;;16.30;99.90;;;;;;4912524;28;20047;-79
2022/10/17 08:38:00;;;;;;;13.00;9.98;;;16.40;99.90;;;;;;4933327;28;20518;-79
2022/10/17 08:40:57;;;;;;;13.43;10.25;;;16.30;99.90;;;;;;4929837;29;20094;-80
2022/10/17 08:43:47;;;;;;;12.82;9.57;;;16.40;99.90;;;;;;4924285;28;20047;-80
2022/10/17 08:46:15;;;;;;;15.40;9.43;;;16.40;99.90;;;;;;4932274;28;20039;-79
2022/10/17 08:48:46;;;;;;;11.75;9.07;;;16.40;99.90;;;;;;4923111;28;20058;-79
2022/10/17 08:51:19;;;;;;;16.38;9.10;;;16.40;99.90;;;;;;4931717;29;20054;-79
2022/10/17 08:53:50;;;;;;;18.58;9.40;;;16.60;99.90;;;;;;4929347;28;20031;-79
2022/10/17 08:56:25;;;;;;;12.35;8.35;;;16.50;99.90;;;;;;4921505;28;20050;-78
2022/10/17 08:58:54;;;;;;;11.80;8.95;;;16.60;99.90;;;;;;4936323;28;20082;-79
2022/10/17 09:01:47;;;;;;;13.13;8.88;;;16.70;99.90;;;;;;4931511;28;20047;-79
2022/10/17 09:04:34;;;;;;;;;;;16.70;99.90;;;;;;4916286;29;20035;-81
2022/10/17 09:07:25;;;;;;;12.25;8.55;;;16.80;99.90;;;;;;4912074;28;19923;-80
2022/10/17 09:11:28;;;;;;;;;;;;;;;;;;;;;
2022/10/17 09:15:26;;;;;;;12.35;8.30;;;16.80;99.90;;;;;;4941015;28;20134;-80
2022/10/17 09:18:51;;;;;;;10.43;7.72;;;16.80;99.90;;;;;;4933890;28;20054;-81
2022/10/17 09:21:29;;;;;;;14.02;8.85;;;16.90;99.90;;;;;;4931230;29;20039;-80
2022/10/17 09:24:03;;;;;;;11.00;8.90;;;16.90;99.90;;;;;;4914571;28;20071;-80
2022/10/17 09:26:30;;;;;;;10.82;8.05;;;16.90;99.90;;;;;;4899744;28;20682;-77
2022/10/17 09:28:59;;;;;;;10.20;7.93;;;17.00;99.90;;;;;;4928857;28;20062;-78
2022/10/17 09:31:42;;;;;;;10.57;7.70;;;17.10;99.90;;;;;;4915651;28;20070;-78
2022/10/17 09:34:09;;;;;;;11.32;7.82;;;17.10;99.90;;;;;;4930544;29;20043;-78
2022/10/17 09:36:39;;;;;;;9.75;7.45;;;17.20;99.90;;;;;;4922554;29;20614;-78
2022/10/17 09:39:14;;;;;;;10.63;8.02;;;17.20;99.90;;;;;;4918841;29;20043;-78
2022/10/17 09:42:02;;;;;;;11.73;8.30;;;17.20;99.90;;;;;;4936157;28;20089;-79
2022/10/17 09:45:30;;;;;;;10.98;8.13;;;17.10;99.90;;;;;;4918826;29;20039;-80
2022/10/17 09:49:14;;;;;;;17.23;8.93;;;17.20;99.90;;;;;;4943175;28;20043;-79
2022/10/17 09:52:20;;;;;;;15.95;9.93;;;17.10;99.90;;;;;;4888731;28;20083;-80
2022/10/17 09:55:54;;;;;;;13.02;9.82;;;17.00;99.90;;;;;;4953636;28;20059;-77
2022/10/17 09:58:41;;;;;;;18.30;9.50;;;16.90;99.90;;;;;;4934310;29;20043;-77
2022/10/17 10:02:19;;;;;;;15.43;9.77;;;17.00;99.90;;;;;;4926918;29;20487;-82
2022/10/17 10:40:37;;;;;;;22.73;12.13;;;16.70;99.90;;;;;;5626566;23;20050;-80
2022/10/17 10:43:05;;;;;;;20.17;12.68;;;16.70;99.90;;;;;;4967655;28;20129;-82
2022/10/17 10:45:36;;;;;;;18.83;12.43;;;16.70;99.90;;;;;;4969646;28;20077;-81
2022/10/17 10:48:20;;;;;;;20.27;12.60;;;16.70;99.90;;;;;;4948129;28;20047;-82
2022/10/17 10:50:56;;;;;;;27.63;14.15;;;16.60;99.90;;;;;;4963871;28;20684;-82
2022/10/17 10:53:30;;;;;;;26.00;13.38;;;16.60;99.90;;;;;;4943830;28;20051;-82
2022/10/17 10:56:25;;;;;;;28.67;12.43;;;16.60;99.90;;;;;;4949952;28;20526;-84
2022/10/17 10:59:02;;;;;;;16.60;12.63;;;16.60;99.90;;;;;;4943769;28;20497;-82
2022/10/17 11:01:53;;;;;;;20.27;12.13;;;16.60;99.90;;;;;;4949744;28;20057;-83
2022/10/17 11:04:25;;;;;;;24.05;14.80;;;16.60;99.90;;;;;;4950393;28;20036;-84
2022/10/17 11:06:57;;;;;;;23.58;14.02;;;16.60;99.90;;;;;;4950824;28;20102;-79
2022/10/17 11:09:41;;;;;;;;;;;16.60;99.90;;;;;;4932165;28;20386;-80
2022/10/17 11:12:41;;;;;;;19.98;13.88;;;16.70;99.90;;;;;;4971017;28;19918;-81
2022/10/17 11:15:24;;;;;;;26.98;15.32;;;16.70;99.90;;;;;;4953560;28;20043;-82
2022/10/17 11:18:01;;;;;;;22.10;13.90;;;16.70;99.90;;;;;;4956061;28;20047;-82
2022/10/17 11:21:04;;;;;;;19.95;14.63;;;16.70;99.90;;;;;;4950624;28;20054;-83
2022/10/17 11:23:35;;;;;;;19.98;14.88;;;16.70;99.90;;;;;;4955339;28;20556;-83
2022/10/17 11:26:10;;;;;;;28.27;14.77;;;16.70;99.90;;;;;;4968566;28;20050;-83
2022/10/17 11:28:38;;;;;;;19.00;14.77;;;16.70;99.90;;;;;;4955024;28;20070;-84
2022/10/17 11:31:38;;;;;;;20.30;14.70;;;16.70;99.90;;;;;;4932816;29;20043;-83
2022/10/17 11:34:30;;;;;;;20.98;15.07;;;16.70;99.90;;;;;;4949239;28;20055;-83
2022/10/17 12:19:11;;;;;;;17.90;11.60;;;16.90;99.90;;;;;;4955275;28;20063;-82
2022/10/17 12:43:35;;;;;;;12.18;9.40;;;17.20;99.90;;;;;;4817506;29;20057;-82
2022/10/17 12:47:08;;;;;;;12.23;9.57;;;17.20;99.90;;;;;;4802274;29;20077;-81
2022/10/17 12:49:54;;;;;;;;;;;17.30;99.90;;;;;;4804881;29;20042;-79
2022/10/17 12:53:28;;;;;;;10.90;8.35;;;17.20;99.90;;;;;;4827671;29;19979;-78
2022/10/17 12:56:49;;;;;;;10.27;8.13;;;17.30;99.90;;;;;;4813146;29;20164;-79
2022/10/17 12:59:31;;;;;;;10.80;7.97;;;17.30;99.90;;;;;;4793036;29;20099;-78
2022/10/17 13:02:26;;;;;;;11.40;8.02;;;17.30;99.90;;;;;;4799169;29;20049;-78
2022/10/17 13:22:12;;;;;;;11.68;8.23;;;17.10;99.90;;;;;;4865064;29;20078;-78
2022/10/17 13:25:44;;;;;;;10.20;8.10;;;17.10;99.90;;;;;;4799438;29;20070;-78
2022/10/17 13:32:26;;;;;;;6.65;4.80;;;17.00;99.90;;;;;;4859610;29;20164;-80
2022/10/17 13:35:49;;;;;;;6.50;3.85;;;16.90;99.90;;;;;;4884997;29;20117;-80
2022/10/17 13:38:43;;;;;;;4.10;3.10;;;16.80;99.90;;;;;;4910713;29;20044;-82
2022/10/17 13:45:10;;;;;;;6.80;3.20;;;16.50;99.90;;;;;;4905942;29;20566;-82
2022/10/17 13:52:17;;;;;;;5.13;3.22;;;16.30;99.90;;;;;;4932986;29;20050;-80
2022/10/17 13:55:56;;;;;;;7.68;2.80;;;16.30;99.90;;;;;;4932357;29;20040;-83
2022/10/17 13:58:30;;;;;;;9.55;2.55;;;16.20;99.90;;;;;;4953547;28;20039;-81
2022/10/17 14:01:34;;;;;;;9.43;2.72;;;16.10;99.90;;;;;;4950324;28;20050;-80
2022/10/17 14:04:30;;;;;;;6.13;2.30;;;16.10;99.90;;;;;;4926850;28;20066;-79
2022/10/17 14:06:58;;;;;;;5.68;2.58;;;15.90;99.90;;;;;;4945142;28;20493;-78
2022/10/17 14:09:27;;;;;;;6.00;2.70;;;15.90;99.90;;;;;;4939329;28;22036;-80
2022/10/17 14:12:25;;;;;;;9.35;2.80;;;15.80;99.90;;;;;;4929404;28;20048;-80
2022/10/17 14:14:53;;;;;;;5.10;2.60;;;15.80;99.90;;;;;;4955074;28;20077;-78
2022/10/17 14:17:39;;;;;;;10.35;2.80;;;15.80;99.90;;;;;;4931891;28;20039;-80
2022/10/17 14:21:10;;;;;;;5.72;2.78;;;15.80;99.90;;;;;;4950079;28;20445;-82
2022/10/17 14:23:43;;;;;;;4.55;2.60;;;15.60;99.90;;;;;;4949283;28;20090;-79
2022/10/17 14:26:16;;;;;;;5.68;3.15;;;15.60;99.90;;;;;;4946546;28;20449;-80
2022/10/17 14:29:26;;;;;;;3.95;2.20;;;15.60;99.90;;;;;;4946556;28;20036;-80
2022/10/17 14:32:14;;;;;;;3.20;2.00;;;15.60;99.90;;;;;;4949563;28;20074;-78
2022/10/17 14:38:48;;;;;;;4.25;2.10;;;15.60;99.90;;;;;;4920447;28;19926;-70
2022/10/17 14:41:21;;;;;;;5.43;2.10;;;15.60;99.90;;;;;;4925691;28;20059;-77
2022/10/17 14:43:59;;;;;;;3.92;2.05;;;15.50;99.90;;;;;;4940603;28;20098;-71
2022/10/17 14:46:49;;;;;;;3.80;2.40;;;15.60;99.90;;;;;;4945226;28;20366;-80
2022/10/17 14:49:31;;;;;;;6.50;2.92;;;15.60;99.90;;;;;;4948384;28;20059;-76
2022/10/17 14:52:15;;;;;;;5.20;2.70;;;15.60;99.90;;;;;;4946309;28;20178;-75
2022/10/17 14:54:49;;;;;;;3.67;2.70;;;15.60;99.90;;;;;;4954093;28;20628;-74
2022/10/17 14:57:33;;;;;;;5.45;2.80;;;15.50;99.90;;;;;;4966197;28;20047;-75
2022/10/17 14:59:59;;;;;;;3.58;2.55;;;15.60;99.90;;;;;;4972272;28;21994;-75
2022/10/17 15:02:27;;;;;;;8.55;2.92;;;15.60;99.90;;;;;;4951692;28;20071;-75
2022/10/17 15:04:52;;;;;;;4.88;3.22;;;15.60;99.90;;;;;;4960974;28;20039;-74
2022/10/17 15:07:19;;;;;;;6.50;2.75;;;15.60;99.90;;;;;;4954281;28;20134;-75
2022/10/17 15:09:48;;;;;;;7.80;2.70;;;15.60;99.90;;;;;;4946663;28;20048;-73
2022/10/17 15:12:16;;;;;;;5.93;2.45;;;15.60;99.90;;;;;;4937193;28;20047;-74
2022/10/17 15:14:42;;;;;;;5.57;2.60;;;15.60;99.90;;;;;;4945843;28;20047;-75
2022/10/17 15:17:19;;;;;;;8.55;3.00;;;15.70;99.90;;;;;;4950024;28;20047;-73
2022/10/17 15:19:45;;;;;;;5.25;2.72;;;15.70;99.90;;;;;;4946296;28;20050;-74
2022/10/17 15:22:11;;;;;;;5.88;2.92;;;15.70;99.90;;;;;;4947358;28;20074;-75
2022/10/17 15:24:37;;;;;;;9.82;4.80;;;15.80;99.90;;;;;;4960176;28;20094;-70
2022/10/17 15:27:06;;;;;;;6.07;3.00;;;15.80;99.90;;;;;;4966754;28;20039;-72
2022/10/17 15:29:32;;;;;;;7.10;3.40;;;15.90;99.90;;;;;;4960088;28;20070;-71
2022/10/17 15:31:57;;;;;;;4.35;3.03;;;15.90;99.90;;;;;;4937209;28;20516;-75
2022/10/17 15:34:23;;;;;;;6.53;3.15;;;15.80;99.90;;;;;;4956367;28;20486;-74
2022/10/17 15:36:50;;;;;;;5.18;2.95;;;15.90;99.90;;;;;;4953172;28;20390;-73
2022/10/17 15:39:16;;;;;;;4.18;2.53;;;15.90;99.90;;;;;;4947094;28;20051;-74
2022/10/17 15:41:41;;;;;;;6.07;2.85;;;15.90;99.90;;;;;;4946046;28;20060;-75